Time;durP1;ratioP1;P1;durP2;ratioP2;P2;SDS_P1;SDS_P2;PMS_P1;PMS_P2;Temp;Humidity;BMP_temperature;BMP_pressure;BME280_temperature;BME280_humidity;BME280_pressure;Samples;Min_cycle;Max_cycle;Signal;HPM_P1;HPM_P2
2021/12/24 00:00:42;;;;;;;22.73;12.53;;;7.20;35.80;;;;;;5054819;28;20527;-58
2021/12/24 00:03:08;;;;;;;19.40;12.50;;;7.30;38.20;;;;;;5070225;28;20187;-57
2021/12/24 00:05:34;;;;;;;18.17;13.30;;;7.40;28.10;;;;;;5074786;28;20504;-58
2021/12/24 00:08:00;;;;;;;19.77;12.70;;;7.30;34.60;;;;;;5073427;28;20574;-59
2021/12/24 00:10:27;;;;;;;17.07;12.50;;;7.40;32.90;;;;;;5054849;28;20529;-59
2021/12/24 00:13:01;;;;;;;19.07;13.50;;;7.50;31.70;;;;;;5054860;28;20894;-59
2021/12/24 00:37:11;;;;;;;17.30;12.83;;;7.60;45.70;;;;;;5054372;28;20412;-58
2021/12/24 00:39:45;;;;;;;18.77;12.90;;;7.60;48.90;;;;;;5055353;28;20466;-59
2021/12/24 00:42:11;;;;;;;20.93;14.20;;;7.60;51.00;;;;;;5074210;28;20508;-59
2021/12/24 00:44:38;;;;;;;19.17;13.10;;;7.50;69.00;;;;;;5074114;28;20434;-58
2021/12/24 00:47:03;;;;;;;18.47;12.53;;;7.60;80.20;;;;;;5074168;28;20425;-58
2021/12/24 00:49:29;;;;;;;18.67;13.47;;;7.40;90.10;;;;;;5074245;28;20982;-58
2021/12/24 00:52:07;;;;;;;21.30;13.47;;;7.60;99.90;;;;;;5072469;28;20279;-58
2021/12/24 00:57:18;;;;;;;18.60;13.47;;;7.60;99.90;;;;;;5074224;28;21029;-57
2021/12/24 00:59:44;;;;;;;19.77;13.53;;;;;;;;;;5073862;28;20436;-59
2021/12/24 01:02:09;;;;;;;18.67;12.97;;;7.60;99.90;;;;;;5073869;28;20184;-57
2021/12/24 01:04:35;;;;;;;19.90;13.30;;;7.50;99.90;;;;;;5073726;28;20420;-58
2021/12/24 01:07:00;;;;;;;22.70;12.93;;;7.50;99.90;;;;;;5073714;28;20628;-59
2021/12/24 01:09:26;;;;;;;20.60;13.33;;;7.50;99.90;;;;;;5072756;28;20199;-59
2021/12/24 01:11:51;;;;;;;23.10;13.80;;;7.60;99.90;;;;;;5055788;28;20191;-58
2021/12/24 01:14:20;;;;;;;21.13;14.60;;;7.60;99.90;;;;;;5073519;28;20179;-59
2021/12/24 01:16:55;;;;;;;22.80;15.83;;;7.50;99.90;;;;;;5073977;28;20544;-60
2021/12/24 01:19:24;;;;;;;19.30;14.03;;;7.50;99.90;;;;;;5073663;28;20883;-58
2021/12/24 01:22:31;;;;;;;20.13;13.67;;;7.60;99.90;;;;;;5063571;28;20930;-58
2021/12/24 01:25:03;;;;;;;21.90;14.93;;;7.60;99.90;;;;;;5073737;28;20486;-58
2021/12/24 01:38:14;;;;;;;20.70;14.43;;;7.70;99.90;;;;;;5073358;28;20448;-58
2021/12/24 01:43:23;;;;;;;23.40;15.10;;;7.70;99.90;;;;;;5073137;28;20465;-57
2021/12/24 01:45:51;;;;;;;22.50;13.60;;;7.70;99.90;;;;;;5073386;28;20412;-58
2021/12/24 01:48:17;;;;;;;21.27;14.20;;;7.80;99.90;;;;;;5073212;28;20434;-59
2021/12/24 01:50:45;;;;;;;17.73;13.00;;;7.80;99.90;;;;;;5073016;28;20438;-59
2021/12/24 01:53:13;;;;;;;17.40;11.40;;;7.90;99.90;;;;;;5072958;28;20541;-59
2021/12/24 01:55:39;;;;;;;16.37;12.00;;;7.80;99.90;;;;;;5072706;28;20454;-59
2021/12/24 01:58:05;;;;;;;19.23;11.87;;;7.80;99.90;;;;;;5057276;28;20435;-58
2021/12/24 02:00:38;;;;;;;13.83;10.53;;;7.80;99.90;;;;;;5067996;28;20465;-57
2021/12/24 02:03:07;;;;;;;14.63;10.50;;;7.80;99.90;;;;;;5052704;28;20442;-57
2021/12/24 02:05:33;;;;;;;13.93;9.37;;;7.80;99.90;;;;;;5051455;28;20413;-60
2021/12/24 02:07:59;;;;;;;14.50;10.70;;;7.80;99.90;;;;;;5052854;28;20438;-60
2021/12/24 02:10:25;;;;;;;16.27;11.47;;;7.80;99.90;;;;;;5061315;28;20509;-59
2021/12/24 02:12:53;;;;;;;12.43;9.37;;;7.80;99.90;;;;;;5059492;28;20556;-60
2021/12/24 02:15:33;;;;;;;11.73;9.90;;;7.80;99.90;;;;;;5069296;28;20546;-58
2021/12/24 02:18:23;;;;;;;10.50;7.90;;;7.90;99.90;;;;;;5066580;28;20453;-60
2021/12/24 02:29:06;;;;;;;8.20;7.20;;;7.80;99.90;;;;;;5059485;28;20479;-59
2021/12/24 02:31:32;;;;;;;9.07;7.03;;;7.80;99.90;;;;;;5063782;28;20484;-59
2021/12/24 02:33:57;;;;;;;7.27;6.23;;;7.80;99.90;;;;;;5064158;28;20439;-59
2021/12/24 02:36:23;;;;;;;8.90;6.70;;;7.80;99.90;;;;;;5054930;28;20562;-60
2021/12/24 02:38:49;;;;;;;8.53;6.73;;;7.80;99.90;;;;;;5055753;28;20212;-59
2021/12/24 02:41:16;;;;;;;6.60;5.70;;;7.90;99.90;;;;;;5071726;28;20211;-58
2021/12/24 02:43:42;;;;;;;7.17;6.43;;;7.90;99.90;;;;;;5072358;28;20525;-60
2021/12/24 02:46:15;;;;;;;6.77;5.50;;;7.90;99.90;;;;;;5072526;28;20868;-60
2021/12/24 02:54:05;;;;;;;7.67;6.10;;;8.00;99.90;;;;;;5062359;28;20468;-58
2021/12/24 02:56:33;;;;;;;6.57;5.47;;;8.10;99.90;;;;;;5061115;28;20459;-60
2021/12/24 02:59:04;;;;;;;6.83;5.10;;;8.00;99.90;;;;;;5052250;28;20176;-58
2021/12/24 03:01:34;;;;;;;4.93;4.47;;;8.10;99.90;;;;;;5054552;28;20529;-59
2021/12/24 03:04:00;;;;;;;5.63;4.30;;;8.00;99.90;;;;;;5058892;28;20533;-58
2021/12/24 03:06:29;;;;;;;6.90;4.70;;;8.00;99.90;;;;;;5059899;28;20483;-59
2021/12/24 03:08:55;;;;;;;6.40;4.40;;;8.00;99.90;;;;;;5063136;28;20435;-60
2021/12/24 03:11:22;;;;;;;5.13;4.63;;;;;;;;;;5060804;28;20442;-60
2021/12/24 03:13:49;;;;;;;4.90;4.40;;;8.00;99.90;;;;;;5060227;28;20437;-58
2021/12/24 03:16:15;;;;;;;5.27;4.77;;;8.10;99.90;;;;;;5054623;28;20439;-59
2021/12/24 03:18:42;;;;;;;5.50;4.63;;;8.10;99.90;;;;;;5073997;28;20508;-58
2021/12/24 03:21:14;;;;;;;4.27;3.60;;;8.00;99.90;;;;;;5064148;28;20258;-60
2021/12/24 03:23:43;;;;;;;4.40;3.90;;;8.00;99.90;;;;;;5059587;28;20442;-59
2021/12/24 03:26:12;;;;;;;6.03;3.77;;;8.00;99.90;;;;;;5068170;28;21106;-58
2021/12/24 03:28:38;;;;;;;5.40;4.33;;;8.00;99.90;;;;;;5075630;28;20438;-58
2021/12/24 03:31:05;;;;;;;4.57;4.07;;;8.00;99.90;;;;;;5069697;28;20498;-58
2021/12/24 03:33:33;;;;;;;5.40;4.50;;;8.00;99.90;;;;;;5055778;28;20434;-59
2021/12/24 03:36:00;;;;;;;4.20;3.90;;;8.00;99.90;;;;;;5054384;28;20437;-58
2021/12/24 03:38:26;;;;;;;4.93;3.47;;;8.10;99.90;;;;;;5055610;28;20438;-58
2021/12/24 03:40:51;;;;;;;4.33;3.50;;;8.00;99.90;;;;;;5055240;28;20466;-58
2021/12/24 03:43:17;;;;;;;3.60;3.30;;;8.00;99.90;;;;;;5054190;28;20246;-58
2021/12/24 03:45:55;;;;;;;3.80;2.80;;;8.00;99.90;;;;;;5055653;28;20206;-59
2021/12/24 03:48:38;;;;;;;3.93;3.50;;;8.00;99.90;;;;;;5055539;28;20523;-58
2021/12/24 03:57:10;;;;;;;3.87;3.57;;;8.00;99.90;;;;;;5055155;28;20434;-59
2021/12/24 03:59:36;;;;;;;2.77;2.57;;;8.10;99.90;;;;;;5056354;28;20462;-57
2021/12/24 04:02:01;;;;;;;4.30;3.33;;;8.10;99.90;;;;;;5055067;28;20180;-59
2021/12/24 04:04:27;;;;;;;3.30;3.00;;;8.10;99.90;;;;;;5055036;28;20791;-59
2021/12/24 04:06:52;;;;;;;2.90;2.60;;;8.00;99.90;;;;;;5055138;28;20191;-59
2021/12/24 04:09:19;;;;;;;4.67;2.93;;;8.00;99.90;;;;;;5066702;28;20184;-57
2021/12/24 04:11:45;;;;;;;3.00;2.50;;;;;;;;;;5073555;28;20183;-59
2021/12/24 04:14:10;;;;;;;2.73;2.43;;;8.10;99.90;;;;;;5054770;28;21011;-58
2021/12/24 04:16:36;;;;;;;2.70;2.50;;;8.10;99.90;;;;;;5061528;28;20446;-57
2021/12/24 04:24:56;;;;;;;2.10;2.00;;;8.00;99.90;;;;;;5065193;28;20445;-57
2021/12/24 04:27:29;;;;;;;3.70;2.33;;;8.00;99.90;;;;;;5071002;28;20396;-57
2021/12/24 04:30:03;;;;;;;3.43;3.13;;;8.00;99.90;;;;;;5054423;28;20435;-57
2021/12/24 04:35:46;;;;;;;2.43;2.10;;;8.10;99.90;;;;;;5054309;28;20446;-56
2021/12/24 04:53:07;;;;;;;1.83;1.70;;;8.20;99.90;;;;;;5062085;28;20523;-58
2021/12/24 05:01:31;;;;;;;2.03;1.87;;;8.30;99.90;;;;;;5049847;28;20469;-58
2021/12/24 05:03:58;;;;;;;2.27;2.07;;;8.30;99.90;;;;;;5063010;28;20433;-56
2021/12/24 05:08:53;;;;;;;1.60;1.50;;;8.40;99.90;;;;;;5062366;28;20434;-57
2021/12/24 05:11:19;;;;;;;2.43;1.87;;;8.30;99.90;;;;;;5056736;28;20193;-57
2021/12/24 05:13:46;;;;;;;3.30;2.23;;;8.40;99.90;;;;;;5073526;28;20484;-58
2021/12/24 05:16:24;;;;;;;2.13;2.00;;;8.40;99.90;;;;;;5054581;28;20809;-56
2021/12/24 05:21:42;;;;;;;2.50;2.30;;;8.40;99.90;;;;;;5057336;28;20430;-55
2021/12/24 05:24:09;;;;;;;2.33;2.13;;;8.40;99.90;;;;;;5052534;28;20430;-56
2021/12/24 05:26:36;;;;;;;2.73;2.53;;;8.40;99.90;;;;;;5053167;28;20443;-56
2021/12/24 05:29:03;;;;;;;3.70;2.50;;;8.40;99.90;;;;;;5053133;28;20446;-56
2021/12/24 05:31:30;;;;;;;3.00;2.70;;;8.50;99.90;;;;;;5052973;28;20470;-57
2021/12/24 05:33:56;;;;;;;3.00;2.70;;;8.40;99.90;;;;;;5053011;28;20434;-56
2021/12/24 05:36:22;;;;;;;2.73;2.53;;;8.50;99.90;;;;;;5053131;28;20939;-57
2021/12/24 05:38:48;;;;;;;2.70;2.50;;;8.50;99.90;;;;;;5052949;28;20185;-57
2021/12/24 05:41:14;;;;;;;2.90;2.70;;;8.50;99.90;;;;;;5053075;28;20659;-56
2021/12/24 05:43:40;;;;;;;3.60;3.27;;;8.40;99.90;;;;;;5053565;28;20271;-57
2021/12/24 05:46:05;;;;;;;3.10;2.80;;;8.50;99.90;;;;;;5053091;28;20548;-57
2021/12/24 05:48:31;;;;;;;3.80;3.50;;;8.50;99.90;;;;;;5053071;28;20188;-56
2021/12/24 05:50:57;;;;;;;4.43;4.03;;;8.50;99.90;;;;;;5052985;28;20184;-57
2021/12/24 05:53:24;;;;;;;4.20;3.80;;;8.50;99.90;;;;;;5053024;28;20570;-56
2021/12/24 05:55:50;;;;;;;3.97;3.57;;;8.60;99.90;;;;;;5053139;28;20408;-57
2021/12/24 05:58:16;;;;;;;5.77;5.17;;;8.60;99.90;;;;;;5052888;28;20469;-57
2021/12/24 06:00:43;;;;;;;5.03;4.53;;;8.70;99.90;;;;;;5051716;28;20462;-58
2021/12/24 06:03:10;;;;;;;5.40;4.90;;;8.70;99.90;;;;;;5052768;28;20429;-58
2021/12/24 06:05:36;;;;;;;6.73;4.47;;;8.70;99.90;;;;;;5065709;28;20471;-59
2021/12/24 06:08:03;;;;;;;8.43;6.40;;;8.70;99.90;;;;;;5055332;28;20445;-58
2021/12/24 06:10:28;;;;;;;9.70;6.00;;;8.70;99.90;;;;;;5052566;28;20982;-57
2021/12/24 06:12:54;;;;;;;6.33;5.57;;;8.80;99.90;;;;;;5067079;28;20433;-58
2021/12/24 06:15:24;;;;;;;6.47;5.67;;;8.70;99.90;;;;;;5072858;28;20191;-59
2021/12/24 06:17:52;;;;;;;6.93;6.23;;;;;;;;;;5050222;28;20427;-59
2021/12/24 06:20:18;;;;;;;6.20;5.60;;;;;;;;;;5065361;28;20477;-59
2021/12/24 06:22:44;;;;;;;5.80;5.20;;;8.80;99.90;;;;;;5072441;28;20408;-57
2021/12/24 06:25:10;;;;;;;6.27;5.30;;;8.90;99.90;;;;;;5072759;28;20513;-57
2021/12/24 06:27:36;;;;;;;6.67;5.97;;;9.00;99.90;;;;;;5072399;28;20600;-58
2021/12/24 06:30:04;;;;;;;6.07;5.47;;;9.00;99.90;;;;;;5069667;28;20434;-59
2021/12/24 06:35:54;;;;;;;6.00;5.27;;;9.00;99.90;;;;;;5052763;28;20398;-58
2021/12/24 06:38:20;;;;;;;6.03;5.43;;;9.00;99.90;;;;;;5052671;28;20427;-58
2021/12/24 06:40:46;;;;;;;6.80;6.10;;;9.00;99.90;;;;;;5052361;28;20474;-58
2021/12/24 06:43:11;;;;;;;6.57;5.87;;;9.10;99.90;;;;;;5052539;28;20426;-60
2021/12/24 06:45:37;;;;;;;6.80;6.10;;;;;;;;;;5052409;28;20183;-58
2021/12/24 06:48:05;;;;;;;7.83;6.40;;;9.20;99.90;;;;;;5052315;28;20187;-57
2021/12/24 06:50:31;;;;;;;10.87;7.40;;;9.20;99.90;;;;;;5052447;28;20427;-59
2021/12/24 06:52:57;;;;;;;8.20;6.60;;;9.20;99.90;;;;;;5056243;28;20506;-58
2021/12/24 06:55:24;;;;;;;8.90;7.20;;;9.20;99.90;;;;;;5056544;28;20529;-58
2021/12/24 06:57:49;;;;;;;8.07;7.27;;;9.10;99.90;;;;;;5056326;28;20189;-58
2021/12/24 07:00:18;;;;;;;10.50;7.60;;;9.10;99.90;;;;;;5056255;28;20454;-59
2021/12/24 07:02:44;;;;;;;8.87;7.97;;;9.20;99.90;;;;;;5054893;28;20208;-59
2021/12/24 07:05:10;;;;;;;11.30;8.43;;;9.20;99.90;;;;;;5056191;28;20441;-57
2021/12/24 07:07:36;;;;;;;8.77;7.67;;;9.20;99.90;;;;;;5056155;28;20509;-59
2021/12/24 07:10:03;;;;;;;10.23;7.60;;;9.20;99.90;;;;;;5055999;28;20493;-58
2021/12/24 07:12:29;;;;;;;8.70;7.30;;;9.30;99.90;;;;;;5055933;28;20613;-57
2021/12/24 07:14:54;;;;;;;7.90;6.80;;;9.30;99.90;;;;;;5055886;28;20526;-58
2021/12/24 07:17:20;;;;;;;9.17;7.07;;;9.20;99.90;;;;;;5054472;28;20638;-58
2021/12/24 07:19:45;;;;;;;8.30;7.50;;;9.20;99.90;;;;;;5054185;28;20566;-56
2021/12/24 07:22:12;;;;;;;8.37;6.90;;;9.30;99.90;;;;;;5055637;28;20234;-58
2021/12/24 07:24:38;;;;;;;7.67;6.63;;;9.20;99.90;;;;;;5055605;28;20259;-56
2021/12/24 07:27:04;;;;;;;7.63;6.20;;;9.30;99.90;;;;;;5055400;28;20533;-58
2021/12/24 07:29:30;;;;;;;9.03;7.70;;;9.40;99.90;;;;;;5055390;28;20187;-58
2021/12/24 07:31:56;;;;;;;7.47;6.70;;;9.30;99.90;;;;;;5055465;28;20664;-57
2021/12/24 07:34:22;;;;;;;7.90;7.10;;;9.30;99.90;;;;;;5055534;28;20459;-62
2021/12/24 07:36:48;;;;;;;7.00;6.30;;;9.40;99.90;;;;;;5055252;28;20173;-58
2021/12/24 07:39:13;;;;;;;6.83;6.13;;;9.40;99.90;;;;;;5055346;28;20177;-57
2021/12/24 07:41:39;;;;;;;7.57;6.80;;;9.40;99.90;;;;;;5055114;28;20922;-56
2021/12/24 07:44:05;;;;;;;5.67;5.07;;;9.40;99.90;;;;;;5055096;28;20255;-59
2021/12/24 07:46:37;;;;;;;6.17;5.37;;;9.40;99.90;;;;;;5054966;28;20636;-58
2021/12/24 07:49:17;;;;;;;6.80;5.47;;;9.50;99.90;;;;;;5055281;28;20434;-58
2021/12/24 07:55:06;;;;;;;6.00;5.40;;;9.60;99.90;;;;;;5055290;28;20430;-58
2021/12/24 07:57:32;;;;;;;6.63;5.93;;;9.70;99.90;;;;;;5055016;28;20437;-59
2021/12/24 07:59:58;;;;;;;5.63;4.80;;;9.70;99.90;;;;;;5054908;28;20502;-60
2021/12/24 08:02:26;;;;;;;8.27;5.10;;;9.70;99.90;;;;;;5073343;28;20180;-58
2021/12/24 08:04:53;;;;;;;5.93;5.33;;;9.70;99.90;;;;;;5075063;28;20437;-59
2021/12/24 08:07:20;;;;;;;6.90;5.40;;;9.60;99.90;;;;;;5055490;28;20433;-59
2021/12/24 08:09:47;;;;;;;5.17;4.67;;;9.60;99.90;;;;;;5069187;28;20532;-59
2021/12/24 08:12:13;;;;;;;5.80;5.23;;;9.70;99.90;;;;;;5060199;28;20781;-54
2021/12/24 08:14:39;;;;;;;7.33;5.17;;;9.70;99.90;;;;;;5050993;28;20451;-54
2021/12/24 08:17:05;;;;;;;5.33;4.70;;;9.70;99.90;;;;;;5049636;28;21179;-54
2021/12/24 08:19:31;;;;;;;5.50;4.90;;;9.70;99.90;;;;;;5049903;28;20661;-55
2021/12/24 08:21:58;;;;;;;5.77;4.73;;;9.80;99.90;;;;;;5050920;28;20451;-54
2021/12/24 08:24:24;;;;;;;6.50;4.97;;;9.80;99.90;;;;;;5048180;28;20459;-55
2021/12/24 08:26:49;;;;;;;5.10;4.60;;;9.90;99.90;;;;;;5050376;28;20417;-54
2021/12/24 08:29:15;;;;;;;5.40;4.83;;;9.90;99.90;;;;;;5050665;28;20642;-54
2021/12/24 08:31:41;;;;;;;5.10;4.57;;;9.90;99.90;;;;;;5050189;28;20231;-55
2021/12/24 08:34:07;;;;;;;7.00;5.00;;;10.00;99.90;;;;;;5050864;28;20446;-55
2021/12/24 08:36:33;;;;;;;5.60;5.10;;;10.10;99.90;;;;;;5050747;28;20223;-55
2021/12/24 08:38:59;;;;;;;4.90;4.40;;;10.10;99.90;;;;;;5050816;28;20820;-55
2021/12/24 08:41:26;;;;;;;5.33;4.73;;;10.10;99.90;;;;;;5050783;28;20569;-56
2021/12/24 08:43:52;;;;;;;5.43;4.47;;;10.20;99.90;;;;;;5051373;28;20451;-53
2021/12/24 08:46:17;;;;;;;4.50;4.10;;;10.20;99.90;;;;;;5055604;28;21687;-54
2021/12/24 08:48:43;;;;;;;3.97;3.60;;;10.10;99.90;;;;;;5068803;28;20438;-53
2021/12/24 08:51:09;;;;;;;3.83;3.50;;;10.20;99.90;;;;;;5051140;28;20191;-56
2021/12/24 08:53:34;;;;;;;4.47;3.87;;;10.30;99.90;;;;;;5051344;28;20187;-55
2021/12/24 08:56:00;;;;;;;4.20;3.80;;;10.30;99.90;;;;;;5050998;28;20192;-54
2021/12/24 08:58:26;;;;;;;3.40;3.10;;;10.30;99.90;;;;;;5051074;28;20184;-55
2021/12/24 09:00:51;;;;;;;4.20;3.00;;;10.40;99.90;;;;;;5049367;28;20565;-54
2021/12/24 09:03:17;;;;;;;3.23;2.93;;;10.30;99.90;;;;;;5050670;28;20520;-55
2021/12/24 09:05:43;;;;;;;4.23;3.60;;;10.30;99.90;;;;;;5062894;28;20176;-54
2021/12/24 09:08:09;;;;;;;3.43;3.00;;;10.50;99.90;;;;;;5051985;28;20188;-57
2021/12/24 09:10:35;;;;;;;3.70;3.37;;;10.40;99.90;;;;;;5049333;28;20195;-54
2021/12/24 09:13:01;;;;;;;3.37;3.07;;;10.40;99.90;;;;;;5047786;28;20995;-57
2021/12/24 09:15:30;;;;;;;3.30;3.07;;;10.40;92.80;;;;;;5059764;28;20196;-55
2021/12/24 09:17:56;;;;;;;3.93;3.20;;;10.40;87.00;;;;;;5050772;28;20470;-53
2021/12/24 09:20:28;;;;;;;4.33;2.87;;;10.40;74.90;;;;;;5054360;28;20804;-54
2021/12/24 09:22:55;;;;;;;2.83;2.63;;;10.50;67.80;;;;;;5051026;28;21114;-54
2021/12/24 09:25:23;;;;;;;2.93;2.63;;;10.60;50.30;;;;;;5050608;28;20443;-55
2021/12/24 09:27:49;;;;;;;3.60;3.10;;;10.70;44.50;;;;;;5050595;28;20408;-56
2021/12/24 09:30:14;;;;;;;2.77;2.50;;;10.70;29.40;;;;;;5050089;28;20446;-56
2021/12/24 09:32:40;;;;;;;2.77;2.40;;;;;;;;;;5049573;28;20442;-56
2021/12/24 09:35:07;;;;;;;2.97;2.57;;;10.70;15.00;;;;;;5048541;28;20188;-56
2021/12/24 09:37:33;;;;;;;4.63;3.00;;;;;;;;;;5056443;28;20475;-55
2021/12/24 09:39:59;;;;;;;2.60;2.30;;;10.80;2.20;;;;;;5070334;28;20565;-55
2021/12/24 09:42:25;;;;;;;2.83;2.63;;;11.00;1.00;;;;;;5055449;28;20576;-55
2021/12/24 09:44:51;;;;;;;2.53;2.20;;;11.00;1.00;;;;;;5065483;28;20189;-56
2021/12/24 09:47:17;;;;;;;3.20;2.57;;;11.20;1.00;;;;;;5050521;28;20446;-55
2021/12/24 09:49:43;;;;;;;2.87;2.50;;;11.20;1.00;;;;;;5050167;28;20659;-58
2021/12/24 09:52:09;;;;;;;2.37;2.17;;;11.20;1.00;;;;;;5050574;28;20457;-56
2021/12/24 09:54:34;;;;;;;2.00;1.80;;;11.20;1.00;;;;;;5057233;28;20216;-55
2021/12/24 09:57:01;;;;;;;2.17;1.97;;;11.30;1.00;;;;;;5056839;28;20176;-55
2021/12/24 09:59:27;;;;;;;3.73;1.97;;;11.40;1.00;;;;;;5067998;28;20187;-55
2021/12/24 10:01:59;;;;;;;2.50;2.30;;;11.20;1.00;;;;;;5049648;28;20443;-55
2021/12/24 10:04:30;;;;;;;2.23;1.87;;;11.10;1.00;;;;;;5058783;28;20409;-56
2021/12/24 10:07:03;;;;;;;2.40;2.03;;;11.10;1.00;;;;;;5050110;28;20413;-55
2021/12/24 10:09:32;;;;;;;2.60;2.40;;;11.30;1.00;;;;;;5058619;28;20441;-56
2021/12/24 10:12:02;;;;;;;2.37;2.17;;;11.40;1.00;;;;;;5047922;28;20450;-56
2021/12/24 10:14:36;;;;;;;2.00;1.80;;;11.40;1.00;;;;;;5052963;28;21047;-54
2021/12/24 10:17:03;;;;;;;2.90;2.13;;;11.40;1.00;;;;;;5048326;28;20434;-55
2021/12/24 10:19:41;;;;;;;1.97;1.83;;;11.50;1.00;;;;;;5053416;28;20951;-57
2021/12/24 10:22:07;;;;;;;2.70;1.63;;;11.40;1.00;;;;;;5050486;28;20443;-57
2021/12/24 10:24:33;;;;;;;2.10;1.90;;;11.50;1.00;;;;;;5048794;28;20417;-55
2021/12/24 10:27:00;;;;;;;1.93;1.77;;;11.50;1.00;;;;;;5052644;28;20188;-55
2021/12/24 10:29:32;;;;;;;2.63;2.10;;;11.50;1.00;;;;;;5058426;28;20176;-54
2021/12/24 10:32:11;;;;;;;3.00;2.03;;;11.60;1.00;;;;;;5066646;28;20444;-54
2021/12/24 10:34:38;;;;;;;3.00;2.30;;;11.80;1.00;;;;;;5057658;28;20767;-56
2021/12/24 10:37:14;;;;;;;3.10;2.33;;;11.90;1.00;;;;;;5055567;28;20767;-55
2021/12/24 10:39:59;;;;;;;2.30;2.07;;;11.90;1.00;;;;;;5057174;28;20779;-56
2021/12/24 10:42:35;;;;;;;2.27;2.07;;;11.90;1.00;;;;;;5054375;28;20491;-55
2021/12/24 10:45:03;;;;;;;2.30;2.10;;;11.90;1.00;;;;;;5053972;28;20534;-54
2021/12/24 10:47:32;;;;;;;2.20;2.00;;;12.00;1.00;;;;;;5053735;28;20435;-56
2021/12/24 10:50:25;;;;;;;2.97;2.10;;;12.00;1.00;;;;;;5066525;28;20417;-56
2021/12/24 10:55:21;;;;;;;2.47;2.27;;;12.10;1.00;;;;;;5069492;28;20412;-55
2021/12/24 10:57:51;;;;;;;2.30;2.00;;;11.80;1.00;;;;;;5070854;28;20450;-56
2021/12/24 11:00:31;;;;;;;2.70;2.50;;;11.80;1.00;;;;;;5054351;28;20454;-54
2021/12/24 11:03:06;;;;;;;3.47;2.47;;;11.90;1.00;;;;;;5051009;28;20435;-55
2021/12/24 11:05:33;;;;;;;2.00;1.90;;;11.80;1.00;;;;;;5056818;28;20976;-55
2021/12/24 11:08:01;;;;;;;2.23;2.03;;;11.90;1.00;;;;;;5051271;28;20517;-56
2021/12/24 11:10:30;;;;;;;2.77;2.30;;;12.00;1.00;;;;;;5053021;28;20495;-56
2021/12/24 11:13:07;;;;;;;2.80;2.50;;;12.10;1.00;;;;;;5059682;28;20430;-55
2021/12/24 11:15:42;;;;;;;2.30;2.00;;;12.00;1.00;;;;;;5052947;28;20453;-55
2021/12/24 11:18:16;;;;;;;4.10;2.27;;;11.80;1.00;;;;;;5051552;28;20473;-56
2021/12/24 11:20:42;;;;;;;2.13;1.97;;;11.80;1.00;;;;;;5065514;28;20532;-54
2021/12/24 11:23:16;;;;;;;1.77;1.67;;;11.80;1.00;;;;;;5054142;28;20468;-56
2021/12/24 11:25:48;;;;;;;2.37;2.17;;;11.90;1.00;;;;;;5053777;28;20438;-55
2021/12/24 11:28:15;;;;;;;2.57;2.37;;;11.80;1.00;;;;;;5053036;28;20934;-56
2021/12/24 11:30:44;;;;;;;1.60;1.50;;;11.70;1.00;;;;;;5052120;28;20994;-55
2021/12/24 11:33:17;;;;;;;2.83;2.10;;;11.90;1.00;;;;;;5052232;28;20426;-56
2021/12/24 11:35:45;;;;;;;1.87;1.70;;;11.70;1.00;;;;;;5066753;28;20478;-55
2021/12/24 11:38:20;;;;;;;2.10;1.87;;;11.60;1.00;;;;;;5051427;28;20446;-55
2021/12/24 11:40:48;;;;;;;2.13;2.03;;;11.60;1.00;;;;;;5065461;28;20443;-55
2021/12/24 11:43:14;;;;;;;2.20;2.00;;;;;;;;;;5065228;28;20846;-54
2021/12/24 11:45:41;;;;;;;2.90;2.70;;;;;;;;;;5052517;28;20418;-55
2021/12/24 11:48:06;;;;;;;2.07;1.87;;;11.40;1.00;;;;;;5051375;28;20431;-53
2021/12/24 11:50:33;;;;;;;3.07;2.10;;;11.40;1.00;;;;;;5058009;28;20510;-55
2021/12/24 11:53:03;;;;;;;2.23;2.03;;;12.40;1.00;;;;;;5052190;28;20443;-55
2021/12/24 11:55:33;;;;;;;2.53;2.23;;;;;;;;;;5051759;28;20414;-55
2021/12/24 11:58:04;;;;;;;2.43;2.23;;;11.40;1.00;;;;;;5052511;28;20549;-56
2021/12/24 12:00:35;;;;;;;2.63;2.20;;;11.40;1.00;;;;;;5056224;28;20474;-58
2021/12/24 12:03:01;;;;;;;2.77;2.40;;;;;;;;;;5050497;28;20479;-56
2021/12/24 12:05:33;;;;;;;3.07;2.60;;;11.40;1.00;;;;;;5052083;28;20421;-56
2021/12/24 12:08:24;;;;;;;2.40;2.03;;;11.40;1.00;;;;;;5058035;28;20467;-55
2021/12/24 12:11:02;;;;;;;3.23;2.30;;;11.40;1.00;;;;;;5059890;28;20423;-56
2021/12/24 12:13:42;;;;;;;2.50;2.30;;;11.40;1.00;;;;;;5051658;28;20487;-55
2021/12/24 12:16:10;;;;;;;2.80;2.60;;;11.30;1.00;;;;;;5055229;28;20471;-57
2021/12/24 12:18:49;;;;;;;3.03;2.73;;;11.20;1.00;;;;;;5053986;28;20447;-55
2021/12/24 12:21:23;;;;;;;2.40;2.20;;;11.20;1.00;;;;;;5049589;28;20469;-56
2021/12/24 12:26:36;;;;;;;2.87;2.57;;;;;;;;;;5062577;28;20446;-55
2021/12/24 12:29:28;;;;;;;2.60;2.40;;;11.30;1.00;;;;;;5059528;28;20450;-55
2021/12/24 12:31:57;;;;;;;2.83;2.50;;;;;;;;;;5054599;28;20425;-54
2021/12/24 12:34:38;;;;;;;3.00;2.30;;;11.30;1.00;;;;;;5056039;28;20442;-53
2021/12/24 12:37:40;;;;;;;3.10;2.37;;;11.20;1.00;;;;;;5055405;28;20457;-55
2021/12/24 12:40:26;;;;;;;3.27;2.57;;;;;;;;;;5054608;28;20429;-54
2021/12/24 12:42:57;;;;;;;2.50;2.30;;;11.40;1.00;;;;;;5056003;28;20426;-54
2021/12/24 12:45:43;;;;;;;3.80;2.03;;;11.30;1.00;;;;;;5061302;28;20452;-54
2021/12/24 12:48:12;;;;;;;4.80;3.90;;;11.40;1.00;;;;;;5045589;28;20971;-55
2021/12/24 12:50:49;;;;;;;3.37;2.83;;;11.50;1.00;;;;;;5052898;28;20442;-55
2021/12/24 12:53:25;;;;;;;3.17;2.60;;;;;;;;;;5059576;28;20858;-54
2021/12/24 12:56:10;;;;;;;4.80;2.93;;;11.50;1.00;;;;;;5052264;28;20456;-55
2021/12/24 12:58:37;;;;;;;5.57;3.30;;;11.50;1.00;;;;;;5050738;28;20451;-55
2021/12/24 13:01:05;;;;;;;9.07;6.73;;;11.50;1.00;;;;;;5054860;28;20459;-56
2021/12/24 13:03:32;;;;;;;3.77;2.77;;;11.70;1.00;;;;;;5054937;28;20496;-54
2021/12/24 13:06:00;;;;;;;3.60;3.23;;;11.50;1.00;;;;;;5054694;28;20446;-54
2021/12/24 13:08:28;;;;;;;4.60;3.87;;;11.60;1.00;;;;;;5046312;28;20435;-55
2021/12/24 13:11:03;;;;;;;3.43;2.80;;;11.50;1.00;;;;;;5049936;28;20451;-56
2021/12/24 13:13:31;;;;;;;2.83;2.43;;;11.50;1.00;;;;;;5052315;28;20473;-56
2021/12/24 13:15:56;;;;;;;2.73;2.53;;;11.40;1.00;;;;;;5055032;28;20558;-59
2021/12/24 13:18:30;;;;;;;3.60;3.30;;;11.40;1.00;;;;;;5043921;28;20473;-61
2021/12/24 13:23:36;;;;;;;3.93;2.90;;;11.40;1.00;;;;;;5036811;28;20444;-62
2021/12/24 13:26:14;;;;;;;4.73;4.10;;;11.40;1.00;;;;;;5042072;28;20463;-61
2021/12/24 13:29:12;;;;;;;3.30;2.90;;;11.20;1.00;;;;;;5042036;28;20443;-58
2021/12/24 13:31:40;;;;;;;6.77;4.40;;;11.30;1.00;;;;;;5034834;28;20454;-59
2021/12/24 13:34:14;;;;;;;3.77;3.37;;;11.20;1.00;;;;;;5036735;28;21734;-60
2021/12/24 13:36:40;;;;;;;9.33;5.50;;;11.20;1.00;;;;;;5039655;28;20401;-60
2021/12/24 13:39:10;;;;;;;4.97;4.50;;;11.00;1.00;;;;;;5036047;28;20508;-62
2021/12/24 13:41:39;;;;;;;3.77;3.20;;;11.20;1.00;;;;;;5034882;28;20221;-60
2021/12/24 13:44:05;;;;;;;5.80;3.70;;;11.20;1.00;;;;;;5037141;28;20450;-58
2021/12/24 13:46:34;;;;;;;5.00;3.20;;;11.20;1.00;;;;;;5041766;28;21282;-62
2021/12/24 13:54:33;;;;;;;2.90;2.70;;;11.10;1.00;;;;;;5035063;28;20450;-61
2021/12/24 13:57:01;;;;;;;5.03;3.20;;;11.10;1.00;;;;;;5032287;28;20491;-61
2021/12/24 13:59:28;;;;;;;4.70;3.20;;;11.10;1.00;;;;;;5032055;28;20455;-61
2021/12/24 14:01:55;;;;;;;2.60;2.40;;;11.10;1.00;;;;;;5033493;28;20879;-60
2021/12/24 14:04:22;;;;;;;5.03;3.40;;;11.10;1.00;;;;;;5041064;28;20447;-63
2021/12/24 14:06:51;;;;;;;3.10;2.70;;;11.10;1.00;;;;;;5033043;28;20446;-61
2021/12/24 14:09:31;;;;;;;4.00;3.23;;;11.00;1.00;;;;;;5034666;28;20431;-62
2021/12/24 14:11:58;;;;;;;3.50;3.20;;;11.00;1.00;;;;;;5031168;28;20528;-60
2021/12/24 14:14:37;;;;;;;2.90;2.60;;;11.00;1.00;;;;;;5033377;28;20421;-60
2021/12/24 14:20:26;;;;;;;3.90;3.50;;;11.00;1.00;;;;;;5045911;28;20442;-61
2021/12/24 14:22:34;;;;;;;5.03;3.67;;;10.80;1.00;;;;;;5057304;28;20438;-60
2021/12/24 14:25:08;;;;;;;3.17;2.87;;;10.70;1.00;;;;;;5041353;28;20831;-61
2021/12/24 14:27:35;;;;;;;5.80;5.20;;;10.70;1.00;;;;;;5036019;28;20407;-61
2021/12/24 14:30:10;;;;;;;22.37;19.83;;;10.60;1.00;;;;;;5035109;28;22195;-62
2021/12/24 14:32:44;;;;;;;3.57;3.20;;;10.60;1.00;;;;;;5032909;28;20477;-62
2021/12/24 14:35:15;;;;;;;4.00;3.20;;;10.50;1.00;;;;;;5035895;28;22154;-60
2021/12/24 14:37:52;;;;;;;5.03;3.67;;;10.40;1.00;;;;;;5037417;28;21073;-63
2021/12/24 14:40:18;;;;;;;5.00;4.17;;;;;;;;;;5033957;28;20486;-60
2021/12/24 14:42:51;;;;;;;4.40;3.57;;;10.50;1.00;;;;;;5032108;28;20965;-61
2021/12/24 14:45:19;;;;;;;5.20;4.27;;;10.40;1.00;;;;;;5032031;28;20452;-61
2021/12/24 14:48:02;;;;;;;5.07;3.53;;;10.40;1.00;;;;;;5031427;28;21812;-55
2021/12/24 14:50:30;;;;;;;5.70;3.30;;;10.40;1.00;;;;;;5034192;28;20446;-53
2021/12/24 14:53:12;;;;;;;5.07;3.77;;;10.30;1.00;;;;;;5034186;28;20471;-55
2021/12/24 14:56:02;;;;;;;4.10;3.23;;;10.40;1.00;;;;;;5033022;28;20529;-55
2021/12/24 14:58:37;;;;;;;5.57;3.63;;;10.30;1.00;;;;;;5032356;28;20444;-54
2021/12/24 15:01:13;;;;;;;5.07;4.33;;;10.10;1.00;;;;;;5034022;28;20466;-53
2021/12/24 15:03:44;;;;;;;6.90;4.30;;;10.00;1.00;;;;;;5032890;28;20766;-54